Portada
METAR-TAF:

METAR-TAF

Aeroports :

Puerto Carreño, Colòmbia

latitud: 06-10N, longitud: 067-30W, altitud: 55 m

Observació

L'informe es va fer fa 1 hora i 20 minuts, a les 23:00 UTC
Vent calma
Temperatura 26°C
Humitat 84%
Pressió 1007 hPa
Visibilitat 10 km o més
Escasses núvols a una alçada de 1700 ft
Núvols disperses a una alçada de 7000 ft

METAR: SKPC 292300Z 00000KT 9999 FEW017 SCT070 26/23 A2975

Hora: 19:20 (00:20 UTC)


TAF: manca

Observacions i pronòstics meteorològics de més de 4000 aeroports (METAR i TAF).

Les estacions disponibles són els punts grocs i vermells al mapa.

Posi el ratolí al punt desitjat per veure el nom de l'estació.

Feu clic per veure les observacions i els pronòstics meteorològics.

Per canviar el mapa: feu clic els botons verds amb una creu de color negre per apropar; al botó verd amb un guió per allunyar la imatge; o en les fletxes verdes per a mapes adjacents.


METAR-TAF: